createdAt,value
2023-04-02T00:01:31.283Z,3.59
2023-04-02T00:06:31.274Z,3.56
2023-04-02T00:11:31.269Z,3.54
2023-04-02T00:16:31.326Z,3.59
2023-04-02T00:21:31.221Z,3.53
2023-04-02T00:26:31.174Z,3.49
2023-04-02T00:31:31.201Z,3.49
2023-04-02T00:36:31.127Z,3.50
2023-04-02T00:41:31.100Z,3.49
2023-04-02T00:46:31.132Z,3.42
2023-04-02T00:51:31.038Z,3.41
2023-04-02T00:56:31.014Z,3.42
2023-04-02T01:01:31.110Z,3.35
2023-04-02T01:06:30.999Z,3.34
2023-04-02T01:11:30.926Z,3.41
2023-04-02T01:16:31.269Z,3.35
2023-04-02T01:21:30.921Z,3.37
2023-04-02T01:26:30.900Z,3.35
2023-04-02T01:31:30.985Z,3.34
2023-04-02T01:36:30.807Z,3.28
2023-04-02T01:41:30.816Z,3.20
2023-04-02T01:46:30.760Z,3.23
2023-04-02T01:51:30.721Z,3.22
2023-04-02T01:56:30.687Z,3.16
2023-04-02T02:01:30.646Z,3.16
2023-04-02T02:06:30.622Z,3.15
2023-04-02T02:11:30.606Z,3.13
2023-04-02T02:16:30.612Z,3.13
2023-04-02T02:21:30.512Z,3.10
2023-04-02T02:26:30.551Z,3.12
2023-04-02T02:31:30.490Z,3.12
2023-04-02T02:36:30.420Z,3.15
2023-04-02T02:41:30.434Z,3.10
2023-04-02T02:46:30.400Z,3.12
2023-04-02T02:51:30.323Z,3.10
2023-04-02T02:56:30.276Z,3.05
2023-04-02T03:01:30.246Z,3.07
2023-04-02T03:06:30.222Z,3.07
2023-04-02T03:11:30.241Z,3.07
2023-04-02T03:16:30.215Z,3.10
2023-04-02T03:21:30.171Z,3.02
2023-04-02T03:26:30.182Z,3.07
2023-04-02T03:31:30.141Z,3.15
2023-04-02T03:36:30.078Z,3.08
2023-04-02T03:41:30.102Z,3.02
2023-04-02T03:46:30.050Z,3.01
2023-04-02T03:51:29.984Z,3.02
2023-04-02T03:56:29.970Z,3.01
2023-04-02T04:01:30.025Z,2.98
2023-04-02T04:06:29.935Z,3.02
2023-04-02T04:11:29.971Z,2.94
2023-04-02T04:16:29.897Z,2.97
2023-04-02T04:21:29.865Z,2.94
2023-04-02T04:26:29.834Z,2.89
2023-04-02T04:31:29.885Z,2.90
2023-04-02T04:36:29.794Z,2.92
2023-04-02T04:41:29.798Z,2.94
2023-04-02T04:46:29.765Z,2.90
2023-04-02T04:51:29.671Z,2.86
2023-04-02T04:56:29.644Z,2.90
2023-04-02T05:01:29.731Z,2.84
2023-04-02T05:06:29.583Z,2.86
2023-04-02T05:11:29.568Z,2.86
2023-04-02T05:16:29.613Z,2.89
2023-04-02T05:21:29.529Z,2.94
2023-04-02T05:26:29.681Z,2.94
2023-04-02T05:31:29.489Z,2.98
2023-04-02T05:36:29.390Z,2.98
2023-04-02T05:41:29.403Z,3.08
2023-04-02T05:46:29.339Z,3.07
2023-04-02T05:51:29.350Z,3.13
2023-04-02T05:56:29.272Z,3.15
2023-04-02T06:01:29.266Z,3.19
2023-04-02T06:06:29.218Z,3.25
2023-04-02T06:11:29.254Z,3.19
2023-04-02T06:16:29.167Z,3.16
2023-04-02T06:21:29.156Z,3.17
2023-04-02T06:26:29.103Z,3.16
2023-04-02T06:31:29.065Z,3.22
2023-04-02T06:36:29.037Z,3.30
2023-04-02T06:41:29.079Z,3.33
2023-04-02T06:46:29.021Z,3.35
2023-04-02T06:51:28.964Z,3.41
2023-04-02T06:56:28.971Z,3.44
2023-04-02T07:01:29.025Z,3.52
2023-04-02T07:06:28.920Z,3.59
2023-04-02T07:11:28.930Z,3.64
2023-04-02T07:16:28.909Z,3.68
2023-04-02T07:21:28.851Z,3.77
2023-04-02T07:26:28.840Z,3.81
2023-04-02T07:31:28.843Z,3.84
2023-04-02T07:36:28.733Z,4.00
2023-04-02T07:41:28.736Z,4.04
2023-04-02T07:46:28.703Z,4.07
2023-04-02T07:51:28.665Z,4.26
2023-04-02T07:56:28.711Z,4.38
2023-04-02T08:01:28.597Z,4.36
2023-04-02T08:06:28.561Z,4.43
2023-04-02T08:11:31.137Z,4.54
2023-04-02T08:16:28.996Z,4.61
2023-04-02T08:21:28.486Z,4.87
2023-04-02T08:26:28.436Z,5.37
2023-04-02T08:31:28.408Z,5.38
2023-04-02T08:36:28.402Z,5.30
2023-04-02T08:41:28.345Z,5.26
2023-04-02T08:46:28.314Z,5.20
2023-04-02T08:51:28.313Z,5.40
2023-04-02T08:56:28.498Z,5.62
2023-04-02T09:01:28.338Z,5.62
2023-04-02T09:06:28.924Z,5.90
2023-04-02T09:11:28.288Z,6.05
2023-04-02T09:16:28.538Z,6.13
2023-04-02T09:21:28.090Z,6.13
2023-04-02T09:26:28.035Z,6.11
2023-04-02T09:31:28.059Z,6.03
2023-04-02T09:36:28.011Z,6.38
2023-04-02T09:41:28.021Z,6.55
2023-04-02T09:46:28.081Z,6.38
2023-04-02T09:51:27.971Z,6.20
2023-04-02T09:56:27.885Z,6.64
2023-04-02T10:01:27.886Z,6.58
2023-04-02T10:06:27.795Z,6.75
2023-04-02T10:11:36.335Z,6.81
2023-04-02T10:16:27.745Z,6.90
2023-04-02T10:21:27.684Z,6.89
2023-04-02T10:26:27.945Z,6.83
2023-04-02T10:31:27.655Z,7.04
2023-04-02T10:36:27.645Z,8.52
2023-04-02T10:41:27.592Z,13.59
2023-04-02T10:46:27.570Z,13.90
2023-04-02T10:51:27.535Z,9.38
2023-04-02T10:56:28.577Z,8.22
2023-04-02T11:01:27.492Z,10.55
2023-04-02T11:06:28.614Z,12.26
2023-04-02T11:11:27.433Z,12.59
2023-04-02T11:16:27.497Z,11.66
2023-04-02T11:21:27.376Z,9.49
2023-04-02T11:26:27.339Z,13.72
2023-04-02T11:31:27.280Z,11.42
2023-04-02T11:36:27.271Z,10.04
2023-04-02T11:41:27.209Z,9.71
2023-04-02T11:46:27.220Z,9.06
2023-04-02T11:51:27.181Z,8.94
2023-04-02T11:56:27.183Z,13.48
2023-04-02T12:01:27.057Z,11.41
2023-04-02T12:06:27.043Z,10.42
2023-04-02T12:11:27.031Z,13.73
2023-04-02T12:16:27.006Z,13.47
2023-04-02T12:21:26.957Z,15.25
2023-04-02T12:26:26.900Z,11.74
2023-04-02T12:31:27.023Z,15.31
2023-04-02T12:36:27.228Z,16.36
2023-04-02T12:41:26.829Z,13.76
2023-04-02T12:46:26.864Z,14.53
2023-04-02T12:51:27.963Z,13.09
2023-04-02T12:56:26.762Z,13.28
2023-04-02T13:01:26.726Z,11.20
2023-04-02T13:06:26.687Z,11.27
2023-04-02T13:11:26.645Z,10.55
2023-04-02T13:16:26.814Z,9.80
2023-04-02T13:21:28.981Z,10.06
2023-04-02T13:26:26.860Z,10.07
2023-04-02T13:31:28.162Z,10.17
2023-04-02T13:36:26.603Z,10.35
2023-04-02T13:41:26.534Z,10.10
2023-04-02T13:46:26.456Z,9.96
2023-04-02T13:51:26.561Z,9.89
2023-04-02T13:56:26.460Z,9.75
2023-04-02T14:01:26.568Z,9.23
2023-04-02T14:06:26.343Z,9.35
2023-04-02T14:11:26.419Z,9.08
2023-04-02T14:16:26.384Z,9.26
2023-04-02T14:21:26.350Z,9.45
2023-04-02T14:26:27.304Z,9.44
2023-04-02T14:31:26.290Z,9.19
2023-04-02T14:36:26.322Z,8.75
2023-04-02T14:41:26.158Z,8.60
2023-04-02T14:46:26.174Z,8.82
2023-04-02T14:51:26.092Z,8.94
2023-04-02T14:56:26.072Z,8.89
2023-04-02T15:01:26.059Z,8.39
2023-04-02T15:06:26.017Z,8.47
2023-04-02T15:11:26.052Z,8.25
2023-04-02T15:16:26.130Z,8.10
2023-04-02T15:21:25.941Z,8.24
2023-04-02T15:26:25.920Z,8.22
2023-04-02T15:31:25.962Z,8.07
2023-04-02T15:36:25.969Z,8.12
2023-04-02T15:41:25.800Z,8.18
2023-04-02T15:46:25.811Z,8.07
2023-04-02T15:51:25.788Z,8.10
2023-04-02T15:56:26.574Z,7.84
2023-04-02T16:01:25.766Z,7.58
2023-04-02T16:06:25.670Z,7.45
2023-04-02T16:11:25.705Z,7.47
2023-04-02T16:16:25.672Z,7.37
2023-04-02T16:21:25.625Z,7.21
2023-04-02T16:26:25.648Z,7.12
2023-04-02T16:31:25.672Z,7.05
2023-04-02T16:36:25.616Z,6.91
2023-04-02T16:41:25.515Z,6.75
2023-04-02T16:46:38.070Z,6.71
2023-04-02T16:51:25.429Z,6.58
2023-04-02T16:56:25.411Z,6.55
2023-04-02T17:01:25.473Z,6.42
2023-04-02T17:06:25.337Z,6.32
2023-04-02T17:11:25.334Z,6.17
2023-04-02T17:16:25.373Z,6.01
2023-04-02T17:21:25.277Z,5.96
2023-04-02T17:26:25.244Z,5.84
2023-04-02T17:31:25.243Z,5.75
2023-04-02T17:36:25.477Z,5.56
2023-04-02T17:41:27.763Z,5.52
2023-04-02T17:46:25.483Z,5.48
2023-04-02T17:51:25.878Z,5.37
2023-04-02T17:56:25.174Z,5.19
2023-04-02T18:01:25.264Z,5.04
2023-04-02T18:06:25.110Z,4.86
2023-04-02T18:11:25.062Z,4.74
2023-04-02T18:16:25.055Z,4.64
2023-04-02T18:21:24.981Z,4.53
2023-04-02T18:26:25.026Z,4.35
2023-04-02T18:31:26.981Z,4.28
2023-04-02T18:36:24.959Z,4.16
2023-04-02T18:41:24.941Z,4.06
2023-04-02T18:46:24.989Z,4.07
2023-04-02T18:51:24.879Z,3.98
2023-04-02T18:56:24.839Z,3.81
2023-04-02T19:01:24.816Z,3.75
2023-04-02T19:06:24.926Z,3.72
2023-04-02T19:11:25.633Z,3.63
2023-04-02T19:16:25.197Z,3.59
2023-04-02T19:21:26.419Z,3.54
2023-04-02T19:26:24.653Z,3.54
2023-04-02T19:31:27.124Z,3.50
2023-04-02T19:36:24.625Z,3.44
2023-04-02T19:41:24.583Z,3.33
2023-04-02T19:46:24.597Z,3.26
2023-04-02T19:51:24.537Z,3.20
2023-04-02T19:56:24.493Z,3.17
2023-04-02T20:01:24.443Z,3.17
2023-04-02T20:06:24.406Z,3.15
2023-04-02T20:11:24.431Z,3.01
2023-04-02T20:16:24.389Z,2.94
2023-04-02T20:21:24.328Z,2.86
2023-04-02T20:26:24.450Z,2.79
2023-04-02T20:31:24.512Z,2.68
2023-04-02T20:36:24.276Z,2.68
2023-04-02T20:41:24.450Z,2.71
2023-04-02T20:46:24.303Z,2.65
2023-04-02T20:51:24.286Z,2.50
2023-04-02T20:56:24.204Z,2.43
2023-04-02T21:01:24.174Z,2.38
2023-04-02T21:06:24.101Z,2.38
2023-04-02T21:11:24.503Z,2.27
2023-04-02T21:16:24.128Z,2.14
2023-04-02T21:21:24.041Z,2.07
2023-04-02T21:26:24.426Z,2.11
2023-04-02T21:31:23.971Z,2.01
2023-04-02T21:36:23.912Z,1.86
2023-04-02T21:41:23.867Z,1.83
2023-04-02T21:46:23.881Z,1.83
2023-04-02T21:51:24.904Z,1.77
2023-04-02T21:56:23.824Z,1.71
2023-04-02T22:01:27.422Z,1.70
2023-04-02T22:06:27.033Z,1.64
2023-04-02T22:11:24.068Z,1.60
2023-04-02T22:16:23.646Z,1.53
2023-04-02T22:21:23.625Z,1.47
2023-04-02T22:26:24.041Z,1.46
2023-04-02T22:31:23.633Z,1.32
2023-04-02T22:36:23.864Z,1.29
2023-04-02T22:41:23.501Z,1.28
2023-04-02T22:46:26.267Z,1.28
2023-04-02T22:51:23.462Z,1.24
2023-04-02T22:56:23.459Z,1.07
2023-04-02T23:01:23.589Z,1.02
2023-04-02T23:06:23.402Z,0.95
2023-04-02T23:11:23.358Z,0.95
2023-04-02T23:16:23.488Z,0.92
2023-04-02T23:21:23.296Z,0.88
2023-04-02T23:26:23.286Z,0.84
2023-04-02T23:31:23.300Z,0.80
2023-04-02T23:36:23.237Z,0.80
2023-04-02T23:41:23.192Z,0.70
2023-04-02T23:46:23.299Z,0.70
2023-04-02T23:51:23.144Z,0.67
2023-04-02T23:56:23.122Z,0.57
